sensor_id;sensor_type;location;lat;lon;timestamp;pressure;altitude;pressure_sealevel;temperature
54746;BMP180;40640;48.130;11.356;2023-06-04T00:03:46;95647.00;;;16.30
54746;BMP180;40640;48.130;11.356;2023-06-04T00:07:49;95640.00;;;16.20
54746;BMP180;40640;48.130;11.356;2023-06-04T00:11:51;95630.00;;;16.20
54746;BMP180;40640;48.130;11.356;2023-06-04T00:15:54;95637.00;;;16.10
54746;BMP180;40640;48.130;11.356;2023-06-04T00:19:59;95638.00;;;16.00
54746;BMP180;40640;48.130;11.356;2023-06-04T00:24:01;95644.00;;;16.00
54746;BMP180;40640;48.130;11.356;2023-06-04T00:28:05;95641.00;;;16.00
54746;BMP180;40640;48.130;11.356;2023-06-04T00:32:08;95639.00;;;15.90
54746;BMP180;40640;48.130;11.356;2023-06-04T00:36:13;95634.00;;;15.70
54746;BMP180;40640;48.130;11.356;2023-06-04T00:40:16;95630.00;;;15.60
54746;BMP180;40640;48.130;11.356;2023-06-04T00:44:19;95632.00;;;15.50
54746;BMP180;40640;48.130;11.356;2023-06-04T00:48:23;95632.00;;;15.30
54746;BMP180;40640;48.130;11.356;2023-06-04T00:52:30;95637.00;;;15.30
54746;BMP180;40640;48.130;11.356;2023-06-04T00:56:33;95625.00;;;15.20
54746;BMP180;40640;48.130;11.356;2023-06-04T01:00:36;95635.00;;;15.20
54746;BMP180;40640;48.130;11.356;2023-06-04T01:04:45;95638.00;;;15.10
54746;BMP180;40640;48.130;11.356;2023-06-04T01:08:50;95631.00;;;15.10
54746;BMP180;40640;48.130;11.356;2023-06-04T01:12:56;95633.00;;;14.90
54746;BMP180;40640;48.130;11.356;2023-06-04T01:17:02;95628.00;;;14.90
54746;BMP180;40640;48.130;11.356;2023-06-04T01:21:11;95632.00;;;14.80
54746;BMP180;40640;48.130;11.356;2023-06-04T01:25:24;95631.00;;;14.80
54746;BMP180;40640;48.130;11.356;2023-06-04T01:29:28;95630.00;;;14.80
54746;BMP180;40640;48.130;11.356;2023-06-04T01:33:33;95630.00;;;14.80
54746;BMP180;40640;48.130;11.356;2023-06-04T01:37:36;95636.00;;;14.70
54746;BMP180;40640;48.130;11.356;2023-06-04T01:41:41;95631.00;;;14.70
54746;BMP180;40640;48.130;11.356;2023-06-04T01:45:44;95636.00;;;14.60
54746;BMP180;40640;48.130;11.356;2023-06-04T01:49:48;95638.00;;;14.70
54746;BMP180;40640;48.130;11.356;2023-06-04T01:53:51;95642.00;;;14.60
54746;BMP180;40640;48.130;11.356;2023-06-04T01:57:55;95645.00;;;14.60
54746;BMP180;40640;48.130;11.356;2023-06-04T02:01:59;95648.00;;;14.50
54746;BMP180;40640;48.130;11.356;2023-06-04T02:06:03;95649.00;;;14.50
54746;BMP180;40640;48.130;11.356;2023-06-04T02:10:10;95650.00;;;14.40
54746;BMP180;40640;48.130;11.356;2023-06-04T02:14:14;95641.00;;;14.40
54746;BMP180;40640;48.130;11.356;2023-06-04T02:18:18;95644.00;;;14.30
54746;BMP180;40640;48.130;11.356;2023-06-04T02:22:22;95647.00;;;14.30
54746;BMP180;40640;48.130;11.356;2023-06-04T02:26:26;95650.00;;;14.30
54746;BMP180;40640;48.130;11.356;2023-06-04T02:30:30;95645.00;;;14.20
54746;BMP180;40640;48.130;11.356;2023-06-04T02:34:33;95649.00;;;14.10
54746;BMP180;40640;48.130;11.356;2023-06-04T02:38:36;95654.00;;;14.00
54746;BMP180;40640;48.130;11.356;2023-06-04T02:42:39;95654.00;;;14.00
54746;BMP180;40640;48.130;11.356;2023-06-04T02:46:44;95650.00;;;14.00
54746;BMP180;40640;48.130;11.356;2023-06-04T02:50:47;95652.00;;;14.00
54746;BMP180;40640;48.130;11.356;2023-06-04T02:54:50;95656.00;;;13.90
54746;BMP180;40640;48.130;11.356;2023-06-04T02:58:53;95655.00;;;13.90
54746;BMP180;40640;48.130;11.356;2023-06-04T03:02:58;95651.00;;;13.70
54746;BMP180;40640;48.130;11.356;2023-06-04T03:07:04;95651.00;;;13.60
54746;BMP180;40640;48.130;11.356;2023-06-04T03:11:09;95658.00;;;13.60
54746;BMP180;40640;48.130;11.356;2023-06-04T03:15:13;95656.00;;;13.60
54746;BMP180;40640;48.130;11.356;2023-06-04T03:19:17;95668.00;;;13.70
54746;BMP180;40640;48.130;11.356;2023-06-04T03:23:20;95669.00;;;13.60
54746;BMP180;40640;48.130;11.356;2023-06-04T03:27:24;95672.00;;;13.50
54746;BMP180;40640;48.130;11.356;2023-06-04T03:31:27;95675.00;;;13.50
54746;BMP180;40640;48.130;11.356;2023-06-04T03:35:33;95668.00;;;13.50
54746;BMP180;40640;48.130;11.356;2023-06-04T03:39:36;95674.00;;;13.50
54746;BMP180;40640;48.130;11.356;2023-06-04T03:43:41;95683.00;;;13.60
54746;BMP180;40640;48.130;11.356;2023-06-04T03:47:45;95689.00;;;13.60
54746;BMP180;40640;48.130;11.356;2023-06-04T03:51:50;95686.00;;;13.60
54746;BMP180;40640;48.130;11.356;2023-06-04T03:55:54;95682.00;;;13.60
54746;BMP180;40640;48.130;11.356;2023-06-04T03:59:57;95684.00;;;13.50
54746;BMP180;40640;48.130;11.356;2023-06-04T04:04:00;95682.00;;;13.60
54746;BMP180;40640;48.130;11.356;2023-06-04T04:08:05;95686.00;;;13.60
54746;BMP180;40640;48.130;11.356;2023-06-04T04:12:10;95686.00;;;13.70
54746;BMP180;40640;48.130;11.356;2023-06-04T04:16:14;95689.00;;;13.70
54746;BMP180;40640;48.130;11.356;2023-06-04T04:20:17;95681.00;;;13.80
54746;BMP180;40640;48.130;11.356;2023-06-04T04:24:32;95691.00;;;13.80
54746;BMP180;40640;48.130;11.356;2023-06-04T04:28:37;95694.00;;;13.90
54746;BMP180;40640;48.130;11.356;2023-06-04T04:32:41;95702.00;;;13.90
54746;BMP180;40640;48.130;11.356;2023-06-04T04:36:56;95702.00;;;14.00
54746;BMP180;40640;48.130;11.356;2023-06-04T04:41:01;95707.00;;;14.10
54746;BMP180;40640;48.130;11.356;2023-06-04T04:45:05;95722.00;;;14.20
54746;BMP180;40640;48.130;11.356;2023-06-04T04:49:09;95703.00;;;14.20
54746;BMP180;40640;48.130;11.356;2023-06-04T04:53:12;95702.00;;;14.30
54746;BMP180;40640;48.130;11.356;2023-06-04T04:57:16;95705.00;;;14.40
54746;BMP180;40640;48.130;11.356;2023-06-04T05:01:26;95718.00;;;14.50
54746;BMP180;40640;48.130;11.356;2023-06-04T05:05:29;95715.00;;;14.50
54746;BMP180;40640;48.130;11.356;2023-06-04T05:09:32;95722.00;;;14.80
54746;BMP180;40640;48.130;11.356;2023-06-04T05:13:37;95720.00;;;14.90
54746;BMP180;40640;48.130;11.356;2023-06-04T05:17:43;95723.00;;;15.10
54746;BMP180;40640;48.130;11.356;2023-06-04T05:21:49;95724.00;;;15.30
54746;BMP180;40640;48.130;11.356;2023-06-04T05:25:53;95730.00;;;15.40
54746;BMP180;40640;48.130;11.356;2023-06-04T05:29:58;95729.00;;;15.70
54746;BMP180;40640;48.130;11.356;2023-06-04T05:34:03;95736.00;;;16.00
54746;BMP180;40640;48.130;11.356;2023-06-04T05:38:09;95734.00;;;16.40
54746;BMP180;40640;48.130;11.356;2023-06-04T05:42:12;95746.00;;;18.10
54746;BMP180;40640;48.130;11.356;2023-06-04T05:46:18;95753.00;;;20.60
54746;BMP180;40640;48.130;11.356;2023-06-04T05:50:21;95760.00;;;22.80
54746;BMP180;40640;48.130;11.356;2023-06-04T05:54:24;95762.00;;;24.50
54746;BMP180;40640;48.130;11.356;2023-06-04T05:58:27;95764.00;;;25.60
54746;BMP180;40640;48.130;11.356;2023-06-04T06:02:32;95764.00;;;26.20
54746;BMP180;40640;48.130;11.356;2023-06-04T06:06:36;95766.00;;;26.90
54746;BMP180;40640;48.130;11.356;2023-06-04T06:10:39;95776.00;;;27.70
54746;BMP180;40640;48.130;11.356;2023-06-04T06:14:42;95776.00;;;28.50
54746;BMP180;40640;48.130;11.356;2023-06-04T06:18:47;95781.00;;;28.60
54746;BMP180;40640;48.130;11.356;2023-06-04T06:22:50;95789.00;;;27.30
54746;BMP180;40640;48.130;11.356;2023-06-04T06:26:55;95796.00;;;25.90
54746;BMP180;40640;48.130;11.356;2023-06-04T06:30:58;95800.00;;;24.50
54746;BMP180;40640;48.130;11.356;2023-06-04T06:35:03;95808.00;;;23.90
54746;BMP180;40640;48.130;11.356;2023-06-04T06:39:07;95809.00;;;23.40
54746;BMP180;40640;48.130;11.356;2023-06-04T06:43:10;95809.00;;;23.00
54746;BMP180;40640;48.130;11.356;2023-06-04T06:47:13;95811.00;;;22.80
54746;BMP180;40640;48.130;11.356;2023-06-04T06:51:17;95803.00;;;22.40
54746;BMP180;40640;48.130;11.356;2023-06-04T06:55:20;95809.00;;;22.20
54746;BMP180;40640;48.130;11.356;2023-06-04T06:59:24;95803.00;;;22.20
54746;BMP180;40640;48.130;11.356;2023-06-04T07:03:27;95816.00;;;22.10
54746;BMP180;40640;48.130;11.356;2023-06-04T07:07:31;95810.00;;;22.00
54746;BMP180;40640;48.130;11.356;2023-06-04T07:11:34;95803.00;;;22.10
54746;BMP180;40640;48.130;11.356;2023-06-04T07:15:37;95815.00;;;22.10
54746;BMP180;40640;48.130;11.356;2023-06-04T07:19:40;95799.00;;;22.20
54746;BMP180;40640;48.130;11.356;2023-06-04T07:23:44;95796.00;;;21.90
54746;BMP180;40640;48.130;11.356;2023-06-04T07:27:51;95800.00;;;22.00
54746;BMP180;40640;48.130;11.356;2023-06-04T07:31:54;95800.00;;;22.20
54746;BMP180;40640;48.130;11.356;2023-06-04T07:35:57;95800.00;;;22.30
54746;BMP180;40640;48.130;11.356;2023-06-04T07:40:01;95800.00;;;22.40
54746;BMP180;40640;48.130;11.356;2023-06-04T07:44:04;95806.00;;;22.50
54746;BMP180;40640;48.130;11.356;2023-06-04T07:48:08;95809.00;;;22.60
54746;BMP180;40640;48.130;11.356;2023-06-04T07:52:12;95809.00;;;22.70
54746;BMP180;40640;48.130;11.356;2023-06-04T07:56:17;95803.00;;;22.70
54746;BMP180;40640;48.130;11.356;2023-06-04T08:00:20;95802.00;;;22.70
54746;BMP180;40640;48.130;11.356;2023-06-04T08:04:23;95801.00;;;22.90
54746;BMP180;40640;48.130;11.356;2023-06-04T08:08:26;95799.00;;;22.80
54746;BMP180;40640;48.130;11.356;2023-06-04T08:12:30;95801.00;;;23.10
54746;BMP180;40640;48.130;11.356;2023-06-04T08:16:33;95794.00;;;23.10
54746;BMP180;40640;48.130;11.356;2023-06-04T08:20:36;95797.00;;;23.00
54746;BMP180;40640;48.130;11.356;2023-06-04T08:24:39;95801.00;;;23.00
54746;BMP180;40640;48.130;11.356;2023-06-04T08:28:43;95797.00;;;23.20
54746;BMP180;40640;48.130;11.356;2023-06-04T08:32:46;95802.00;;;23.30
54746;BMP180;40640;48.130;11.356;2023-06-04T08:36:50;95797.00;;;23.50
54746;BMP180;40640;48.130;11.356;2023-06-04T08:40:54;95805.00;;;23.30
54746;BMP180;40640;48.130;11.356;2023-06-04T08:45:02;95807.00;;;23.50
54746;BMP180;40640;48.130;11.356;2023-06-04T08:49:05;95808.00;;;23.50
54746;BMP180;40640;48.130;11.356;2023-06-04T08:53:11;95807.00;;;23.70
54746;BMP180;40640;48.130;11.356;2023-06-04T08:57:14;95807.00;;;23.80
54746;BMP180;40640;48.130;11.356;2023-06-04T09:01:19;95806.00;;;23.80
54746;BMP180;40640;48.130;11.356;2023-06-04T09:05:22;95814.00;;;23.80
54746;BMP180;40640;48.130;11.356;2023-06-04T09:09:25;95807.00;;;23.90
54746;BMP180;40640;48.130;11.356;2023-06-04T09:13:31;95806.00;;;24.10
54746;BMP180;40640;48.130;11.356;2023-06-04T09:17:37;95808.00;;;23.70
54746;BMP180;40640;48.130;11.356;2023-06-04T09:21:48;95808.00;;;23.80
54746;BMP180;40640;48.130;11.356;2023-06-04T09:25:51;95805.00;;;24.00
54746;BMP180;40640;48.130;11.356;2023-06-04T09:29:56;95808.00;;;24.30
54746;BMP180;40640;48.130;11.356;2023-06-04T09:34:00;95799.00;;;23.90
54746;BMP180;40640;48.130;11.356;2023-06-04T09:38:05;95802.00;;;24.20
54746;BMP180;40640;48.130;11.356;2023-06-04T09:42:08;95798.00;;;24.20
54746;BMP180;40640;48.130;11.356;2023-06-04T09:46:12;95801.00;;;24.00
54746;BMP180;40640;48.130;11.356;2023-06-04T09:50:24;95799.00;;;24.00
54746;BMP180;40640;48.130;11.356;2023-06-04T09:54:35;95802.00;;;24.00
54746;BMP180;40640;48.130;11.356;2023-06-04T09:58:38;95802.00;;;24.10
54746;BMP180;40640;48.130;11.356;2023-06-04T10:02:44;95800.00;;;24.30
54746;BMP180;40640;48.130;11.356;2023-06-04T10:06:50;95799.00;;;24.70
54746;BMP180;40640;48.130;11.356;2023-06-04T10:10:55;95801.00;;;24.70
54746;BMP180;40640;48.130;11.356;2023-06-04T10:15:02;95792.00;;;25.00
54746;BMP180;40640;48.130;11.356;2023-06-04T10:19:07;95802.00;;;25.10
54746;BMP180;40640;48.130;11.356;2023-06-04T10:23:12;95802.00;;;25.00
54746;BMP180;40640;48.130;11.356;2023-06-04T10:27:16;95803.00;;;24.90
54746;BMP180;40640;48.130;11.356;2023-06-04T10:31:21;95800.00;;;25.00
54746;BMP180;40640;48.130;11.356;2023-06-04T10:35:31;95807.00;;;25.20
54746;BMP180;40640;48.130;11.356;2023-06-04T10:39:35;95796.00;;;25.30
54746;BMP180;40640;48.130;11.356;2023-06-04T10:43:38;95799.00;;;25.30
54746;BMP180;40640;48.130;11.356;2023-06-04T10:47:42;95793.00;;;25.40
54746;BMP180;40640;48.130;11.356;2023-06-04T10:51:45;95792.00;;;25.40
54746;BMP180;40640;48.130;11.356;2023-06-04T10:55:49;95791.00;;;25.40
54746;BMP180;40640;48.130;11.356;2023-06-04T10:59:56;95784.00;;;25.70
54746;BMP180;40640;48.130;11.356;2023-06-04T11:04:00;95786.00;;;25.80
54746;BMP180;40640;48.130;11.356;2023-06-04T11:08:03;95780.00;;;25.90
54746;BMP180;40640;48.130;11.356;2023-06-04T11:12:08;95783.00;;;26.10
54746;BMP180;40640;48.130;11.356;2023-06-04T11:16:15;95783.00;;;26.10
54746;BMP180;40640;48.130;11.356;2023-06-04T11:20:19;95786.00;;;26.20
54746;BMP180;40640;48.130;11.356;2023-06-04T11:24:23;95786.00;;;26.70
54746;BMP180;40640;48.130;11.356;2023-06-04T11:28:27;95781.00;;;27.00
54746;BMP180;40640;48.130;11.356;2023-06-04T11:32:30;95783.00;;;26.90
54746;BMP180;40640;48.130;11.356;2023-06-04T11:36:33;95787.00;;;27.00
54746;BMP180;40640;48.130;11.356;2023-06-04T11:40:37;95782.00;;;27.00
54746;BMP180;40640;48.130;11.356;2023-06-04T11:44:42;95778.00;;;27.20
54746;BMP180;40640;48.130;11.356;2023-06-04T11:48:50;95775.00;;;27.30
54746;BMP180;40640;48.130;11.356;2023-06-04T11:52:54;95770.00;;;27.50
54746;BMP180;40640;48.130;11.356;2023-06-04T11:56:57;95775.00;;;28.00
54746;BMP180;40640;48.130;11.356;2023-06-04T12:01:01;95775.00;;;28.30
54746;BMP180;40640;48.130;11.356;2023-06-04T12:05:12;95764.00;;;29.20
54746;BMP180;40640;48.130;11.356;2023-06-04T12:09:20;95763.00;;;29.00
54746;BMP180;40640;48.130;11.356;2023-06-04T12:13:23;95765.00;;;29.80
54746;BMP180;40640;48.130;11.356;2023-06-04T12:17:27;95772.00;;;29.80
54746;BMP180;40640;48.130;11.356;2023-06-04T12:21:30;95772.00;;;30.50
54746;BMP180;40640;48.130;11.356;2023-06-04T12:25:34;95760.00;;;31.60
54746;BMP180;40640;48.130;11.356;2023-06-04T12:29:39;95770.00;;;31.10
54746;BMP180;40640;48.130;11.356;2023-06-04T12:33:43;95768.00;;;31.10
54746;BMP180;40640;48.130;11.356;2023-06-04T12:37:46;95766.00;;;31.90
54746;BMP180;40640;48.130;11.356;2023-06-04T12:41:49;95773.00;;;31.80
54746;BMP180;40640;48.130;11.356;2023-06-04T12:45:52;95769.00;;;32.30
54746;BMP180;40640;48.130;11.356;2023-06-04T12:49:57;95766.00;;;34.00
54746;BMP180;40640;48.130;11.356;2023-06-04T12:54:01;95768.00;;;33.20
54746;BMP180;40640;48.130;11.356;2023-06-04T12:58:04;95760.00;;;32.90
54746;BMP180;40640;48.130;11.356;2023-06-04T13:02:07;95760.00;;;33.00
54746;BMP180;40640;48.130;11.356;2023-06-04T13:06:12;95758.00;;;31.60
54746;BMP180;40640;48.130;11.356;2023-06-04T13:10:14;95765.00;;;30.40
54746;BMP180;40640;48.130;11.356;2023-06-04T13:14:17;95760.00;;;30.50
54746;BMP180;40640;48.130;11.356;2023-06-04T13:18:20;95760.00;;;30.70
54746;BMP180;40640;48.130;11.356;2023-06-04T13:22:25;95763.00;;;31.30
54746;BMP180;40640;48.130;11.356;2023-06-04T13:26:27;95757.00;;;31.60
54746;BMP180;40640;48.130;11.356;2023-06-04T13:30:30;95759.00;;;30.50
54746;BMP180;40640;48.130;11.356;2023-06-04T13:34:33;95769.00;;;30.20
54746;BMP180;40640;48.130;11.356;2023-06-04T13:38:38;95754.00;;;29.40
54746;BMP180;40640;48.130;11.356;2023-06-04T13:42:42;95762.00;;;28.80
54746;BMP180;40640;48.130;11.356;2023-06-04T13:46:45;95767.00;;;28.70
54746;BMP180;40640;48.130;11.356;2023-06-04T13:50:48;95760.00;;;28.90
54746;BMP180;40640;48.130;11.356;2023-06-04T13:54:52;95768.00;;;28.80
54746;BMP180;40640;48.130;11.356;2023-06-04T13:58:55;95771.00;;;28.20
54746;BMP180;40640;48.130;11.356;2023-06-04T14:02:58;95764.00;;;28.10
54746;BMP180;40640;48.130;11.356;2023-06-04T14:07:01;95768.00;;;27.90
54746;BMP180;40640;48.130;11.356;2023-06-04T14:11:06;95764.00;;;28.00
54746;BMP180;40640;48.130;11.356;2023-06-04T14:15:09;95764.00;;;27.70
54746;BMP180;40640;48.130;11.356;2023-06-04T14:19:14;95769.00;;;27.40
54746;BMP180;40640;48.130;11.356;2023-06-04T14:23:17;95759.00;;;27.20
54746;BMP180;40640;48.130;11.356;2023-06-04T14:27:21;95766.00;;;27.10
54746;BMP180;40640;48.130;11.356;2023-06-04T14:31:24;95762.00;;;27.20
54746;BMP180;40640;48.130;11.356;2023-06-04T14:35:27;95763.00;;;27.20
54746;BMP180;40640;48.130;11.356;2023-06-04T14:39:30;95754.00;;;27.00
54746;BMP180;40640;48.130;11.356;2023-06-04T14:43:34;95756.00;;;26.80
54746;BMP180;40640;48.130;11.356;2023-06-04T14:47:37;95743.00;;;26.60
54746;BMP180;40640;48.130;11.356;2023-06-04T14:51:40;95736.00;;;26.50
54746;BMP180;40640;48.130;11.356;2023-06-04T14:55:43;95741.00;;;26.40
54746;BMP180;40640;48.130;11.356;2023-06-04T14:59:49;95741.00;;;26.30
54746;BMP180;40640;48.130;11.356;2023-06-04T15:03:52;95744.00;;;26.40
54746;BMP180;40640;48.130;11.356;2023-06-04T15:07:55;95740.00;;;26.20
54746;BMP180;40640;48.130;11.356;2023-06-04T15:11:57;95735.00;;;25.90
54746;BMP180;40640;48.130;11.356;2023-06-04T15:16:02;95744.00;;;25.60
54746;BMP180;40640;48.130;11.356;2023-06-04T15:20:07;95753.00;;;25.40
54746;BMP180;40640;48.130;11.356;2023-06-04T15:24:11;95744.00;;;25.40
54746;BMP180;40640;48.130;11.356;2023-06-04T15:28:14;95745.00;;;25.30
54746;BMP180;40640;48.130;11.356;2023-06-04T15:32:19;95750.00;;;25.10
54746;BMP180;40640;48.130;11.356;2023-06-04T15:36:22;95755.00;;;25.10
54746;BMP180;40640;48.130;11.356;2023-06-04T15:40:25;95753.00;;;25.10
54746;BMP180;40640;48.130;11.356;2023-06-04T15:44:28;95748.00;;;25.10
54746;BMP180;40640;48.130;11.356;2023-06-04T15:48:32;95745.00;;;25.10
54746;BMP180;40640;48.130;11.356;2023-06-04T15:52:35;95750.00;;;25.00
54746;BMP180;40640;48.130;11.356;2023-06-04T15:56:38;95749.00;;;24.90
54746;BMP180;40640;48.130;11.356;2023-06-04T16:00:41;95752.00;;;24.90
54746;BMP180;40640;48.130;11.356;2023-06-04T16:04:45;95747.00;;;24.90
54746;BMP180;40640;48.130;11.356;2023-06-04T16:08:48;95734.00;;;24.80
54746;BMP180;40640;48.130;11.356;2023-06-04T16:12:51;95741.00;;;24.80
54746;BMP180;40640;48.130;11.356;2023-06-04T16:16:54;95739.00;;;24.80
54746;BMP180;40640;48.130;11.356;2023-06-04T16:20:59;95740.00;;;24.80
54746;BMP180;40640;48.130;11.356;2023-06-04T16:25:02;95729.00;;;24.80
54746;BMP180;40640;48.130;11.356;2023-06-04T16:29:05;95733.00;;;24.60
54746;BMP180;40640;48.130;11.356;2023-06-04T16:33:09;95728.00;;;24.50
54746;BMP180;40640;48.130;11.356;2023-06-04T16:37:13;95727.00;;;24.30
54746;BMP180;40640;48.130;11.356;2023-06-04T16:41:16;95719.00;;;24.30
54746;BMP180;40640;48.130;11.356;2023-06-04T16:45:19;95724.00;;;24.30
54746;BMP180;40640;48.130;11.356;2023-06-04T16:49:22;95723.00;;;24.30
54746;BMP180;40640;48.130;11.356;2023-06-04T16:53:26;95725.00;;;24.30
54746;BMP180;40640;48.130;11.356;2023-06-04T16:57:31;95725.00;;;24.30
54746;BMP180;40640;48.130;11.356;2023-06-04T17:01:33;95722.00;;;24.30
54746;BMP180;40640;48.130;11.356;2023-06-04T17:05:38;95719.00;;;24.30
54746;BMP180;40640;48.130;11.356;2023-06-04T17:09:42;95709.00;;;24.20
54746;BMP180;40640;48.130;11.356;2023-06-04T17:13:48;95717.00;;;24.10
54746;BMP180;40640;48.130;11.356;2023-06-04T17:17:51;95726.00;;;24.00
54746;BMP180;40640;48.130;11.356;2023-06-04T17:21:56;95727.00;;;23.90
54746;BMP180;40640;48.130;11.356;2023-06-04T17:26:00;95723.00;;;23.80
54746;BMP180;40640;48.130;11.356;2023-06-04T17:30:04;95726.00;;;23.60
54746;BMP180;40640;48.130;11.356;2023-06-04T17:34:07;95722.00;;;23.60
54746;BMP180;40640;48.130;11.356;2023-06-04T17:38:10;95734.00;;;23.50
54746;BMP180;40640;48.130;11.356;2023-06-04T17:42:14;95727.00;;;23.50
54746;BMP180;40640;48.130;11.356;2023-06-04T17:46:17;95726.00;;;23.40
54746;BMP180;40640;48.130;11.356;2023-06-04T17:50:20;95725.00;;;23.30
54746;BMP180;40640;48.130;11.356;2023-06-04T17:54:23;95720.00;;;23.10
54746;BMP180;40640;48.130;11.356;2023-06-04T17:58:27;95732.00;;;23.00
54746;BMP180;40640;48.130;11.356;2023-06-04T18:02:31;95734.00;;;22.90
54746;BMP180;40640;48.130;11.356;2023-06-04T18:06:34;95738.00;;;22.80
54746;BMP180;40640;48.130;11.356;2023-06-04T18:10:37;95732.00;;;22.70
54746;BMP180;40640;48.130;11.356;2023-06-04T18:14:42;95736.00;;;22.60
54746;BMP180;40640;48.130;11.356;2023-06-04T18:18:45;95740.00;;;22.50
54746;BMP180;40640;48.130;11.356;2023-06-04T18:22:48;95739.00;;;22.40
54746;BMP180;40640;48.130;11.356;2023-06-04T18:26:51;95741.00;;;22.30
54746;BMP180;40640;48.130;11.356;2023-06-04T18:30:56;95745.00;;;22.20
54746;BMP180;40640;48.130;11.356;2023-06-04T18:34:58;95747.00;;;22.10
54746;BMP180;40640;48.130;11.356;2023-06-04T18:39:02;95748.00;;;22.00
54746;BMP180;40640;48.130;11.356;2023-06-04T18:43:05;95751.00;;;21.90
54746;BMP180;40640;48.130;11.356;2023-06-04T18:47:09;95750.00;;;21.80
54746;BMP180;40640;48.130;11.356;2023-06-04T18:51:12;95746.00;;;21.80
54746;BMP180;40640;48.130;11.356;2023-06-04T18:55:15;95746.00;;;21.70
54746;BMP180;40640;48.130;11.356;2023-06-04T18:59:18;95752.00;;;21.70
54746;BMP180;40640;48.130;11.356;2023-06-04T19:03:23;95745.00;;;21.60
54746;BMP180;40640;48.130;11.356;2023-06-04T19:07:26;95741.00;;;21.50
54746;BMP180;40640;48.130;11.356;2023-06-04T19:11:28;95746.00;;;21.50
54746;BMP180;40640;48.130;11.356;2023-06-04T19:15:31;95749.00;;;21.40
54746;BMP180;40640;48.130;11.356;2023-06-04T19:19:36;95744.00;;;21.40
54746;BMP180;40640;48.130;11.356;2023-06-04T19:23:38;95752.00;;;21.30
54746;BMP180;40640;48.130;11.356;2023-06-04T19:27:41;95743.00;;;21.30
54746;BMP180;40640;48.130;11.356;2023-06-04T19:31:45;95756.00;;;21.20
54746;BMP180;40640;48.130;11.356;2023-06-04T19:35:49;95753.00;;;21.20
54746;BMP180;40640;48.130;11.356;2023-06-04T19:39:52;95766.00;;;21.10
54746;BMP180;40640;48.130;11.356;2023-06-04T19:43:55;95759.00;;;21.10
54746;BMP180;40640;48.130;11.356;2023-06-04T19:47:58;95766.00;;;21.10
54746;BMP180;40640;48.130;11.356;2023-06-04T19:52:03;95764.00;;;21.00
54746;BMP180;40640;48.130;11.356;2023-06-04T19:56:06;95770.00;;;21.00
54746;BMP180;40640;48.130;11.356;2023-06-04T20:00:10;95761.00;;;20.90
54746;BMP180;40640;48.130;11.356;2023-06-04T20:04:15;95753.00;;;20.90
54746;BMP180;40640;48.130;11.356;2023-06-04T20:08:19;95761.00;;;20.80
54746;BMP180;40640;48.130;11.356;2023-06-04T20:12:22;95767.00;;;20.70
54746;BMP180;40640;48.130;11.356;2023-06-04T20:16:25;95766.00;;;20.70
54746;BMP180;40640;48.130;11.356;2023-06-04T20:20:29;95770.00;;;20.60
54746;BMP180;40640;48.130;11.356;2023-06-04T20:24:34;95768.00;;;20.60
54746;BMP180;40640;48.130;11.356;2023-06-04T20:28:37;95763.00;;;20.50
54746;BMP180;40640;48.130;11.356;2023-06-04T20:32:39;95764.00;;;20.50
54746;BMP180;40640;48.130;11.356;2023-06-04T20:36:43;95769.00;;;20.40
54746;BMP180;40640;48.130;11.356;2023-06-04T20:40:48;95764.00;;;20.40
54746;BMP180;40640;48.130;11.356;2023-06-04T20:44:51;95763.00;;;20.40
54746;BMP180;40640;48.130;11.356;2023-06-04T20:48:53;95771.00;;;20.30
54746;BMP180;40640;48.130;11.356;2023-06-04T20:52:56;95771.00;;;20.20
54746;BMP180;40640;48.130;11.356;2023-06-04T20:57:01;95775.00;;;20.10
54746;BMP180;40640;48.130;11.356;2023-06-04T21:01:03;95772.00;;;20.10
54746;BMP180;40640;48.130;11.356;2023-06-04T21:05:08;95767.00;;;20.00
54746;BMP180;40640;48.130;11.356;2023-06-04T21:09:11;95771.00;;;20.00
54746;BMP180;40640;48.130;11.356;2023-06-04T21:13:15;95771.00;;;20.00
54746;BMP180;40640;48.130;11.356;2023-06-04T21:17:18;95765.00;;;19.90
54746;BMP180;40640;48.130;11.356;2023-06-04T21:21:21;95760.00;;;19.90
54746;BMP180;40640;48.130;11.356;2023-06-04T21:25:24;95761.00;;;19.90
54746;BMP180;40640;48.130;11.356;2023-06-04T21:29:28;95761.00;;;19.80
54746;BMP180;40640;48.130;11.356;2023-06-04T21:33:31;95764.00;;;19.80
54746;BMP180;40640;48.130;11.356;2023-06-04T21:37:34;95765.00;;;19.80
54746;BMP180;40640;48.130;11.356;2023-06-04T21:41:37;95762.00;;;19.80
54746;BMP180;40640;48.130;11.356;2023-06-04T21:45:42;95760.00;;;19.70
54746;BMP180;40640;48.130;11.356;2023-06-04T21:49:45;95762.00;;;19.70
54746;BMP180;40640;48.130;11.356;2023-06-04T21:53:48;95752.00;;;19.60
54746;BMP180;40640;48.130;11.356;2023-06-04T21:57:50;95747.00;;;19.60
54746;BMP180;40640;48.130;11.356;2023-06-04T22:01:55;95743.00;;;19.60
54746;BMP180;40640;48.130;11.356;2023-06-04T22:05:59;95742.00;;;19.60
54746;BMP180;40640;48.130;11.356;2023-06-04T22:10:02;95749.00;;;19.50
54746;BMP180;40640;48.130;11.356;2023-06-04T22:14:05;95753.00;;;19.50
54746;BMP180;40640;48.130;11.356;2023-06-04T22:18:10;95745.00;;;19.40
54746;BMP180;40640;48.130;11.356;2023-06-04T22:22:13;95755.00;;;19.40
54746;BMP180;40640;48.130;11.356;2023-06-04T22:26:16;95745.00;;;19.40
54746;BMP180;40640;48.130;11.356;2023-06-04T22:30:37;95739.00;;;19.30
54746;BMP180;40640;48.130;11.356;2023-06-04T22:34:42;95735.00;;;19.20
54746;BMP180;40640;48.130;11.356;2023-06-04T22:38:45;95739.00;;;19.20
54746;BMP180;40640;48.130;11.356;2023-06-04T22:42:48;95738.00;;;19.20
54746;BMP180;40640;48.130;11.356;2023-06-04T22:46:51;95735.00;;;19.10
54746;BMP180;40640;48.130;11.356;2023-06-04T22:50:55;95747.00;;;19.10
54746;BMP180;40640;48.130;11.356;2023-06-04T22:54:59;95742.00;;;19.10
54746;BMP180;40640;48.130;11.356;2023-06-04T22:59:02;95739.00;;;19.10
54746;BMP180;40640;48.130;11.356;2023-06-04T23:03:05;95736.00;;;19.10
54746;BMP180;40640;48.130;11.356;2023-06-04T23:07:10;95737.00;;;19.10